createdAt,value
2019-03-26T00:00:34.553Z,91.30
2019-03-26T00:03:03.656Z,91.30
2019-03-26T00:05:32.093Z,91.30
2019-03-26T00:08:00.520Z,91.10
2019-03-26T00:10:28.945Z,91.00
2019-03-26T00:12:57.385Z,91.20
2019-03-26T00:15:25.814Z,91.30
2019-03-26T00:17:54.249Z,91.20
2019-03-26T00:20:22.977Z,91.20
2019-03-26T00:22:51.413Z,91.20
2019-03-26T00:25:19.913Z,91.30
2019-03-26T00:27:48.442Z,91.40
2019-03-26T00:30:17.014Z,91.40
2019-03-26T00:32:45.460Z,91.30
2019-03-26T00:35:13.951Z,91.10
2019-03-26T00:37:42.405Z,91.30
2019-03-26T00:40:11.165Z,91.70
2019-03-26T00:42:39.617Z,91.60
2019-03-26T00:45:08.218Z,91.70
2019-03-26T00:47:36.671Z,91.90
2019-03-26T00:50:06.625Z,92.00
2019-03-26T00:52:35.148Z,92.10
2019-03-26T00:55:04.917Z,92.30
2019-03-26T00:57:33.381Z,92.50
2019-03-26T01:00:02.545Z,92.30
2019-03-26T01:02:30.980Z,92.40
2019-03-26T01:04:59.406Z,92.50
2019-03-26T01:07:28.128Z,92.60
2019-03-26T01:09:56.918Z,92.70
2019-03-26T01:12:25.372Z,92.70
2019-03-26T01:14:53.805Z,92.70
2019-03-26T01:17:22.671Z,93.00
2019-03-26T01:19:51.375Z,92.60
2019-03-26T01:22:19.819Z,92.20
2019-03-26T01:24:48.242Z,92.20
2019-03-26T01:27:16.680Z,91.90
2019-03-26T01:29:45.361Z,91.80
2019-03-26T01:32:13.805Z,91.80
2019-03-26T01:34:46.192Z,92.10
2019-03-26T01:37:12.415Z,92.00
2019-03-26T01:39:40.918Z,91.90
2019-03-26T01:42:09.361Z,91.70
2019-03-26T01:44:37.794Z,91.70
2019-03-26T01:47:06.237Z,91.40
2019-03-26T01:49:34.978Z,91.40
2019-03-26T01:52:03.430Z,91.20
2019-03-26T01:54:31.853Z,91.20
2019-03-26T01:57:00.303Z,91.30
2019-03-26T01:59:28.733Z,91.50
2019-03-26T02:01:57.436Z,91.90
2019-03-26T02:04:25.872Z,92.10
2019-03-26T02:06:54.312Z,92.30
2019-03-26T02:09:22.742Z,92.10
2019-03-26T02:11:51.190Z,92.30
2019-03-26T02:14:19.894Z,92.10
2019-03-26T02:16:48.338Z,92.30
2019-03-26T02:19:16.774Z,92.60
2019-03-26T02:21:45.305Z,92.60
2019-03-26T02:24:13.757Z,92.80
2019-03-26T02:26:42.186Z,92.90
2019-03-26T02:29:10.633Z,92.80
2019-03-26T02:31:39.082Z,93.00
2019-03-26T02:34:07.519Z,92.90
2019-03-26T02:36:36.131Z,93.00
2019-03-26T02:39:06.414Z,93.20
2019-03-26T02:41:37.807Z,92.90
2019-03-26T02:44:05.132Z,92.70
2019-03-26T02:46:33.573Z,92.70
2019-03-26T02:49:02.007Z,92.60
2019-03-26T02:51:30.439Z,92.80
2019-03-26T02:53:58.902Z,92.90
2019-03-26T02:56:27.340Z,92.90
2019-03-26T02:58:55.787Z,92.90
2019-03-26T03:01:24.547Z,93.10
2019-03-26T03:03:53.010Z,93.10
2019-03-26T03:06:21.506Z,93.20
2019-03-26T03:08:50.283Z,92.90
2019-03-26T03:11:18.714Z,92.70
2019-03-26T03:13:47.161Z,92.50
2019-03-26T03:16:15.603Z,92.40
2019-03-26T03:18:44.041Z,92.30
2019-03-26T03:21:12.473Z,92.30
2019-03-26T03:23:40.919Z,92.20
2019-03-26T03:26:09.356Z,92.30
2019-03-26T03:28:37.790Z,92.30
2019-03-26T03:31:06.222Z,92.30
2019-03-26T03:33:34.666Z,92.40
2019-03-26T03:36:03.112Z,92.40
2019-03-26T03:38:31.621Z,92.70
2019-03-26T03:41:00.367Z,92.50
2019-03-26T03:43:29.653Z,92.70
2019-03-26T03:45:58.933Z,92.60
2019-03-26T03:48:27.461Z,92.80
2019-03-26T03:50:57.045Z,92.90
2019-03-26T03:53:26.421Z,92.50
2019-03-26T03:55:56.095Z,92.40
2019-03-26T03:58:25.674Z,92.70
2019-03-26T04:00:54.108Z,92.70
2019-03-26T04:03:22.549Z,92.70
2019-03-26T04:06:07.697Z,92.50
2019-03-26T04:08:21.150Z,92.20
2019-03-26T04:10:49.584Z,92.10
2019-03-26T04:13:18.029Z,92.00
2019-03-26T04:15:46.466Z,92.00
2019-03-26T04:18:14.909Z,92.00
2019-03-26T04:20:43.350Z,92.10
2019-03-26T04:23:11.822Z,92.60
2019-03-26T04:25:40.242Z,91.90
2019-03-26T04:28:09.360Z,91.90
2019-03-26T04:30:37.781Z,91.80
2019-03-26T04:33:06.253Z,91.90
2019-03-26T04:35:34.690Z,91.90
2019-03-26T04:38:03.118Z,92.00
2019-03-26T04:40:31.562Z,92.20
2019-03-26T04:43:00.095Z,92.10
2019-03-26T04:45:28.529Z,92.20
2019-03-26T04:47:56.975Z,92.60
2019-03-26T04:50:25.409Z,92.50
2019-03-26T04:52:54.324Z,92.30
2019-03-26T04:55:23.085Z,92.30
2019-03-26T04:57:51.545Z,92.30
2019-03-26T05:00:20.613Z,92.50
2019-03-26T05:02:49.127Z,92.60
2019-03-26T05:05:17.558Z,92.80
2019-03-26T05:07:46.001Z,93.10
2019-03-26T05:10:14.500Z,93.20
2019-03-26T05:12:42.945Z,93.10
2019-03-26T05:15:11.649Z,93.30
2019-03-26T05:17:40.097Z,93.30
2019-03-26T05:20:08.669Z,93.20
2019-03-26T05:22:37.105Z,93.30
2019-03-26T05:25:07.550Z,93.30
2019-03-26T05:27:45.160Z,93.30
2019-03-26T05:30:08.555Z,93.30
2019-03-26T05:32:37.057Z,93.30
2019-03-26T05:35:06.433Z,93.80
2019-03-26T05:37:34.935Z,93.40
2019-03-26T05:40:04.829Z,93.40
2019-03-26T05:42:33.261Z,93.00
2019-03-26T05:45:01.713Z,92.60
2019-03-26T05:47:30.150Z,92.50
2019-03-26T05:49:58.599Z,92.70
2019-03-26T05:52:27.036Z,92.70
2019-03-26T05:54:55.484Z,92.60
2019-03-26T05:57:23.948Z,92.40
2019-03-26T05:59:52.440Z,92.40
2019-03-26T06:02:20.906Z,92.30
2019-03-26T06:04:49.650Z,92.10
2019-03-26T06:07:18.081Z,91.90
2019-03-26T06:09:46.546Z,92.10
2019-03-26T06:12:15.238Z,91.90
2019-03-26T06:14:43.685Z,91.60
2019-03-26T06:17:12.116Z,91.40
2019-03-26T06:19:40.565Z,91.30
2019-03-26T06:22:09.001Z,91.40
2019-03-26T06:24:37.450Z,91.30
2019-03-26T06:27:05.890Z,91.30
2019-03-26T06:29:34.335Z,91.10
2019-03-26T06:32:02.868Z,90.90
2019-03-26T06:34:31.309Z,90.80
2019-03-26T06:36:59.989Z,91.00
2019-03-26T06:39:28.433Z,91.00
2019-03-26T06:41:56.866Z,91.20
2019-03-26T06:44:25.311Z,91.30
2019-03-26T06:46:53.741Z,91.00
2019-03-26T06:49:22.206Z,91.00
2019-03-26T06:51:50.683Z,91.10
2019-03-26T06:54:19.107Z,90.60
2019-03-26T06:56:47.561Z,90.80
2019-03-26T06:59:15.999Z,90.50
2019-03-26T07:01:44.425Z,90.10
2019-03-26T07:04:12.858Z,88.40
2019-03-26T07:06:41.326Z,88.10
2019-03-26T07:09:09.754Z,88.50
2019-03-26T07:11:38.203Z,87.90
2019-03-26T07:14:06.634Z,87.40
2019-03-26T07:16:35.081Z,86.00
2019-03-26T07:19:03.830Z,86.90
2019-03-26T07:21:32.273Z,85.60
2019-03-26T07:24:00.776Z,85.80
2019-03-26T07:26:29.233Z,84.10
2019-03-26T07:28:57.665Z,84.50
2019-03-26T07:31:26.125Z,84.30
2019-03-26T07:33:54.821Z,84.30
2019-03-26T07:36:23.286Z,82.90
2019-03-26T07:38:51.722Z,82.90
2019-03-26T07:41:20.177Z,83.90
2019-03-26T07:43:48.614Z,84.80
2019-03-26T07:46:17.100Z,84.10
2019-03-26T07:48:45.528Z,82.30
2019-03-26T07:51:14.295Z,85.00
2019-03-26T07:53:42.737Z,82.60
2019-03-26T07:56:11.175Z,82.50
2019-03-26T07:58:39.614Z,81.80
2019-03-26T08:01:08.134Z,79.90
2019-03-26T08:03:36.569Z,79.50
2019-03-26T08:06:05.009Z,81.80
2019-03-26T08:08:33.446Z,80.70
2019-03-26T08:11:01.962Z,81.00
2019-03-26T08:13:30.425Z,81.60
2019-03-26T08:15:59.082Z,81.20
2019-03-26T08:18:27.513Z,83.30
2019-03-26T08:20:57.423Z,83.10
2019-03-26T08:23:26.093Z,82.60
2019-03-26T08:25:54.538Z,80.80
2019-03-26T08:28:23.277Z,79.20
2019-03-26T08:30:51.721Z,80.10
2019-03-26T08:33:23.242Z,81.60
2019-03-26T08:35:50.321Z,80.70
2019-03-26T08:38:18.766Z,80.50
2019-03-26T08:40:47.204Z,80.60
2019-03-26T08:43:15.638Z,80.70
2019-03-26T08:45:44.081Z,80.40
2019-03-26T08:48:12.854Z,81.20
2019-03-26T08:50:41.321Z,81.70
2019-03-26T08:53:09.769Z,81.40
2019-03-26T08:55:38.218Z,80.30
2019-03-26T08:58:06.765Z,79.40
2019-03-26T09:00:35.221Z,79.20
2019-03-26T09:03:03.669Z,78.90
2019-03-26T09:05:32.167Z,77.70
2019-03-26T09:08:00.612Z,77.60
2019-03-26T09:10:29.036Z,76.90
2019-03-26T09:12:57.476Z,76.90
2019-03-26T09:15:25.907Z,77.00
2019-03-26T09:17:54.349Z,77.50
2019-03-26T09:20:23.115Z,75.20
2019-03-26T09:22:51.558Z,73.50
2019-03-26T09:25:19.985Z,71.50
2019-03-26T09:27:48.487Z,73.30
2019-03-26T09:30:17.062Z,74.00
2019-03-26T09:32:45.505Z,75.10
2019-03-26T09:35:14.729Z,75.00
2019-03-26T09:37:43.513Z,73.70
2019-03-26T09:40:12.477Z,73.70
2019-03-26T09:42:40.925Z,74.40
2019-03-26T09:45:10.583Z,73.80
2019-03-26T09:47:39.306Z,72.60
2019-03-26T09:50:09.926Z,74.00
2019-03-26T09:52:38.357Z,74.10
2019-03-26T09:55:08.921Z,72.60
2019-03-26T09:57:37.722Z,72.90
2019-03-26T10:00:08.970Z,71.60
2019-03-26T10:02:37.489Z,70.20
2019-03-26T10:05:07.356Z,70.50
2019-03-26T10:07:36.045Z,70.50
2019-03-26T10:10:06.938Z,70.90
2019-03-26T10:12:35.369Z,71.90
2019-03-26T10:15:05.850Z,70.20
2019-03-26T10:17:34.290Z,69.90
2019-03-26T10:20:02.784Z,70.40
2019-03-26T10:22:31.224Z,69.70
2019-03-26T10:24:59.649Z,70.60
2019-03-26T10:27:28.104Z,65.70
2019-03-26T10:29:56.526Z,70.70
2019-03-26T10:32:24.987Z,66.30
2019-03-26T10:34:53.449Z,67.30
2019-03-26T10:37:22.237Z,68.20
2019-03-26T10:39:50.657Z,68.00
2019-03-26T10:42:19.106Z,66.20
2019-03-26T10:44:47.931Z,65.20
2019-03-26T10:47:16.403Z,62.70
2019-03-26T10:49:45.091Z,63.60
2019-03-26T10:52:13.566Z,60.40
2019-03-26T10:54:42.086Z,61.90
2019-03-26T10:57:10.517Z,61.80
2019-03-26T10:59:38.962Z,62.00
2019-03-26T11:02:07.417Z,63.80
2019-03-26T11:04:36.150Z,63.20
2019-03-26T11:07:04.572Z,59.70
2019-03-26T11:09:33.014Z,63.10
2019-03-26T11:12:01.477Z,62.50
2019-03-26T11:14:31.769Z,63.20
2019-03-26T11:17:00.093Z,64.80
2019-03-26T11:19:28.524Z,63.60
2019-03-26T11:21:56.946Z,66.60
2019-03-26T11:24:25.384Z,64.30
2019-03-26T11:26:54.129Z,65.90
2019-03-26T11:29:22.561Z,65.50
2019-03-26T11:31:51.001Z,59.70
2019-03-26T11:34:19.429Z,60.30
2019-03-26T11:36:47.861Z,59.20
2019-03-26T11:39:16.297Z,60.00
2019-03-26T11:41:44.727Z,59.60
2019-03-26T11:44:13.169Z,57.80
2019-03-26T11:46:41.597Z,56.90
2019-03-26T11:49:10.062Z,56.10
2019-03-26T11:51:38.489Z,58.90
2019-03-26T11:54:06.946Z,57.60
2019-03-26T11:56:35.706Z,56.70
2019-03-26T11:59:04.305Z,56.40
2019-03-26T12:01:32.721Z,56.80
2019-03-26T12:04:01.185Z,55.50
2019-03-26T12:06:29.613Z,55.70
2019-03-26T12:08:58.044Z,57.30
2019-03-26T12:11:26.534Z,58.80
2019-03-26T12:13:54.984Z,59.10
2019-03-26T12:16:23.412Z,57.30
2019-03-26T12:18:51.869Z,57.20
2019-03-26T12:21:20.558Z,57.40
2019-03-26T12:23:48.988Z,58.30
2019-03-26T12:26:17.425Z,57.60
2019-03-26T12:28:45.870Z,58.40
2019-03-26T12:31:14.297Z,60.10
2019-03-26T12:33:42.806Z,56.20
2019-03-26T12:36:11.234Z,56.00
2019-03-26T12:38:39.668Z,52.80
2019-03-26T12:41:08.102Z,53.40
2019-03-26T12:43:36.609Z,53.80
2019-03-26T12:46:05.311Z,53.00
2019-03-26T12:48:33.745Z,56.80
2019-03-26T12:51:02.174Z,55.80
2019-03-26T12:53:30.605Z,53.90
2019-03-26T12:55:59.206Z,54.00
2019-03-26T12:58:32.124Z,53.40
2019-03-26T13:00:58.567Z,52.60
2019-03-26T13:03:26.996Z,53.90
2019-03-26T13:05:55.432Z,53.30
2019-03-26T13:08:23.853Z,54.30
2019-03-26T13:10:53.849Z,55.30
2019-03-26T13:13:22.454Z,54.50
2019-03-26T13:15:50.886Z,55.00
2019-03-26T13:18:19.311Z,56.20
2019-03-26T13:20:47.997Z,54.40
2019-03-26T13:23:16.886Z,54.10
2019-03-26T13:25:45.392Z,54.70
2019-03-26T13:28:13.818Z,55.50
2019-03-26T13:30:42.260Z,57.90
2019-03-26T13:33:10.677Z,53.60
2019-03-26T13:35:39.118Z,54.50
2019-03-26T13:38:07.795Z,54.30
2019-03-26T13:40:36.249Z,53.40
2019-03-26T13:43:04.873Z,54.50
2019-03-26T13:45:33.309Z,52.70
2019-03-26T13:48:01.731Z,49.90
2019-03-26T13:50:30.167Z,50.50
2019-03-26T13:52:58.594Z,50.40
2019-03-26T13:55:27.032Z,50.80
2019-03-26T13:57:55.729Z,53.00
2019-03-26T14:00:35.093Z,53.00
2019-03-26T14:03:04.063Z,54.00
2019-03-26T14:05:32.498Z,51.90
2019-03-26T14:08:01.341Z,54.50
2019-03-26T14:10:40.196Z,53.50
2019-03-26T14:13:00.355Z,52.80
2019-03-26T14:15:29.134Z,53.20
2019-03-26T14:17:57.561Z,52.70
2019-03-26T14:20:26.091Z,52.70
2019-03-26T14:22:54.518Z,54.60
2019-03-26T14:25:23.021Z,55.50
2019-03-26T14:27:51.750Z,54.90
2019-03-26T14:30:40.801Z,55.50
2019-03-26T14:33:09.968Z,54.10
2019-03-26T14:35:38.554Z,54.20
2019-03-26T14:38:07.378Z,53.80
2019-03-26T14:40:36.074Z,54.00
2019-03-26T14:43:04.849Z,53.60
2019-03-26T14:45:33.356Z,52.40
2019-03-26T14:48:01.854Z,52.60
2019-03-26T14:50:30.291Z,52.80
2019-03-26T14:52:58.720Z,54.30
2019-03-26T14:55:27.177Z,54.00
2019-03-26T14:57:55.609Z,52.90
2019-03-26T15:00:24.045Z,54.20
2019-03-26T15:02:52.470Z,53.30
2019-03-26T15:05:20.933Z,52.70
2019-03-26T15:07:49.433Z,54.40
2019-03-26T15:10:18.029Z,53.80
2019-03-26T15:12:46.457Z,54.60
2019-03-26T15:15:15.238Z,54.40
2019-03-26T15:17:43.678Z,53.00
2019-03-26T15:20:12.638Z,53.70
2019-03-26T15:22:41.081Z,53.70
2019-03-26T15:25:09.641Z,54.00
2019-03-26T15:27:38.086Z,54.60
2019-03-26T15:30:08.258Z,54.10
2019-03-26T15:32:36.689Z,54.50
2019-03-26T15:35:06.361Z,55.50
2019-03-26T15:37:34.801Z,55.20
2019-03-26T15:40:03.903Z,55.10
2019-03-26T15:42:32.340Z,55.70
2019-03-26T15:45:00.789Z,55.40
2019-03-26T15:47:29.286Z,54.60
2019-03-26T15:50:01.291Z,55.30
2019-03-26T15:52:29.908Z,53.80
2019-03-26T15:54:58.331Z,53.50
2019-03-26T15:57:27.025Z,54.00
2019-03-26T15:59:55.714Z,53.70
2019-03-26T16:02:24.237Z,52.40
2019-03-26T16:04:52.699Z,53.10
2019-03-26T16:07:21.466Z,54.50
2019-03-26T16:09:49.944Z,56.00
2019-03-26T16:12:18.393Z,55.80
2019-03-26T16:14:46.820Z,54.70
2019-03-26T16:17:15.270Z,55.80
2019-03-26T16:19:43.690Z,54.60
2019-03-26T16:22:12.164Z,54.10
2019-03-26T16:24:40.582Z,55.50
2019-03-26T16:27:09.022Z,54.30
2019-03-26T16:29:37.452Z,55.70
2019-03-26T16:32:05.893Z,57.10
2019-03-26T16:34:34.321Z,56.90
2019-03-26T16:37:02.757Z,57.30
2019-03-26T16:39:31.185Z,57.40
2019-03-26T16:41:59.630Z,57.20
2019-03-26T16:44:28.048Z,57.60
2019-03-26T16:46:56.501Z,57.70
2019-03-26T16:49:24.921Z,57.60
2019-03-26T16:51:53.366Z,56.50
2019-03-26T16:54:21.790Z,56.10
2019-03-26T16:56:50.248Z,57.10
2019-03-26T16:59:18.669Z,57.10
2019-03-26T17:01:47.124Z,57.50
2019-03-26T17:04:15.544Z,58.10
2019-03-26T17:06:44.037Z,58.20
2019-03-26T17:09:12.494Z,58.40
2019-03-26T17:11:40.919Z,58.60
2019-03-26T17:14:09.352Z,59.00
2019-03-26T17:16:37.886Z,59.30
2019-03-26T17:19:06.332Z,59.50
2019-03-26T17:21:34.758Z,59.70
2019-03-26T17:24:03.542Z,59.90
2019-03-26T17:26:32.007Z,60.10
2019-03-26T17:29:00.438Z,60.30
2019-03-26T17:31:28.877Z,60.70
2019-03-26T17:33:57.386Z,60.80
2019-03-26T17:36:25.897Z,61.10
2019-03-26T17:38:54.334Z,61.40
2019-03-26T17:41:23.113Z,61.70
2019-03-26T17:43:51.902Z,61.90
2019-03-26T17:46:20.337Z,62.20
2019-03-26T17:48:48.783Z,62.30
2019-03-26T17:51:17.213Z,62.40
2019-03-26T17:53:45.717Z,62.70
2019-03-26T17:56:14.137Z,63.30
2019-03-26T17:58:42.582Z,63.50
2019-03-26T18:01:11.277Z,63.60
2019-03-26T18:03:39.857Z,63.90
2019-03-26T18:06:08.292Z,64.20
2019-03-26T18:08:36.725Z,64.50
2019-03-26T18:11:05.156Z,64.50
2019-03-26T18:13:33.605Z,64.80
2019-03-26T18:16:02.062Z,64.70
2019-03-26T18:18:30.553Z,64.80
2019-03-26T18:20:59.010Z,65.00
2019-03-26T18:23:27.701Z,65.00
2019-03-26T18:25:56.124Z,65.60
2019-03-26T18:28:24.576Z,65.50
2019-03-26T18:30:53.009Z,65.40
2019-03-26T18:33:21.469Z,65.70
2019-03-26T18:35:49.930Z,65.60
2019-03-26T18:38:18.354Z,65.70
2019-03-26T18:40:47.042Z,65.60
2019-03-26T18:43:15.489Z,65.80
2019-03-26T18:45:43.916Z,66.00
2019-03-26T18:48:12.361Z,66.30
2019-03-26T18:50:40.790Z,66.00
2019-03-26T18:53:09.235Z,66.00
2019-03-26T18:55:37.666Z,66.10
2019-03-26T18:58:06.109Z,66.10
2019-03-26T19:00:36.678Z,66.30
2019-03-26T19:03:06.491Z,66.90
2019-03-26T19:05:34.917Z,66.90
2019-03-26T19:08:03.890Z,67.00
2019-03-26T19:10:34.641Z,67.40
2019-03-26T19:13:03.514Z,67.10
2019-03-26T19:15:32.380Z,67.40
2019-03-26T19:18:00.961Z,67.20
2019-03-26T19:20:29.665Z,67.20
2019-03-26T19:22:58.101Z,67.20
2019-03-26T19:25:26.552Z,67.00
2019-03-26T19:27:55.049Z,67.30
2019-03-26T19:30:23.497Z,67.70
2019-03-26T19:32:51.937Z,67.70
2019-03-26T19:35:20.393Z,67.60
2019-03-26T19:37:48.813Z,67.80
2019-03-26T19:40:17.406Z,67.60
2019-03-26T19:42:45.869Z,67.70
2019-03-26T19:45:14.446Z,67.70
2019-03-26T19:47:42.976Z,67.90
2019-03-26T19:50:12.045Z,67.90
2019-03-26T19:52:40.512Z,67.90
2019-03-26T19:55:09.729Z,67.90
2019-03-26T19:57:38.178Z,68.40
2019-03-26T20:00:12.458Z,68.20
2019-03-26T20:02:40.884Z,68.10
2019-03-26T20:05:10.422Z,67.90
2019-03-26T20:07:38.853Z,68.40
2019-03-26T20:10:08.866Z,68.20
2019-03-26T20:12:37.372Z,68.20
2019-03-26T20:15:10.621Z,68.20
2019-03-26T20:17:39.054Z,68.20
2019-03-26T20:20:09.429Z,69.50
2019-03-26T20:22:37.859Z,70.10
2019-03-26T20:25:07.038Z,70.70
2019-03-26T20:27:35.465Z,71.70
2019-03-26T20:30:07.045Z,72.00
2019-03-26T20:32:35.727Z,72.60
2019-03-26T20:35:09.693Z,73.30
2019-03-26T20:37:38.133Z,74.10
2019-03-26T20:40:08.962Z,74.60
2019-03-26T20:42:40.529Z,75.80
2019-03-26T20:45:14.212Z,75.80
2019-03-26T20:47:41.242Z,76.00
2019-03-26T20:50:10.815Z,76.10
2019-03-26T20:52:39.325Z,75.40
2019-03-26T20:55:10.116Z,76.50
2019-03-26T20:57:38.566Z,76.10
2019-03-26T21:00:09.012Z,76.70
2019-03-26T21:02:37.453Z,77.20
2019-03-26T21:05:08.018Z,77.40
2019-03-26T21:07:37.619Z,76.70
2019-03-26T21:10:08.317Z,76.60
2019-03-26T21:12:37.106Z,77.00
2019-03-26T21:15:26.398Z,77.20
2019-03-26T21:17:55.109Z,77.40
2019-03-26T21:20:23.545Z,77.70
2019-03-26T21:22:52.013Z,77.70
2019-03-26T21:25:20.430Z,78.60
2019-03-26T21:27:48.897Z,78.20
2019-03-26T21:30:17.384Z,78.30
2019-03-26T21:32:45.832Z,79.30
2019-03-26T21:35:14.489Z,79.30
2019-03-26T21:37:43.006Z,79.50
2019-03-26T21:40:11.778Z,79.50
2019-03-26T21:42:40.232Z,79.40
2019-03-26T21:45:11.017Z,78.90
2019-03-26T21:47:39.711Z,79.50
2019-03-26T21:50:08.910Z,79.80
2019-03-26T21:52:37.369Z,79.90
2019-03-26T21:55:08.403Z,81.00
2019-03-26T21:57:36.852Z,80.00
2019-03-26T22:00:09.657Z,80.70
2019-03-26T22:02:38.102Z,80.40
2019-03-26T22:05:10.141Z,79.90
2019-03-26T22:07:37.972Z,80.90
2019-03-26T22:10:08.340Z,83.00
2019-03-26T22:12:37.141Z,81.50
2019-03-26T22:15:10.564Z,81.20
2019-03-26T22:17:39.005Z,80.20
2019-03-26T22:20:08.502Z,79.10
2019-03-26T22:22:36.946Z,78.40
2019-03-26T22:25:07.472Z,77.80
2019-03-26T22:27:35.990Z,77.40
2019-03-26T22:30:07.454Z,77.00
2019-03-26T22:32:35.968Z,76.90
2019-03-26T22:35:07.000Z,76.70
2019-03-26T22:37:35.435Z,76.40
2019-03-26T22:40:06.218Z,77.50
2019-03-26T22:42:34.650Z,77.30
2019-03-26T22:45:04.154Z,77.50
2019-03-26T22:47:32.581Z,77.30
2019-03-26T22:50:01.015Z,77.10
2019-03-26T22:52:29.442Z,76.90
2019-03-26T22:54:57.879Z,76.70
2019-03-26T22:57:26.311Z,76.20
2019-03-26T22:59:54.745Z,76.40
2019-03-26T23:02:23.446Z,76.40
2019-03-26T23:04:51.886Z,75.90
2019-03-26T23:07:20.317Z,76.30
2019-03-26T23:09:48.753Z,76.70
2019-03-26T23:12:17.186Z,76.00
2019-03-26T23:14:45.736Z,76.00
2019-03-26T23:17:14.300Z,76.90
2019-03-26T23:19:42.744Z,77.70
2019-03-26T23:22:11.168Z,78.80
2019-03-26T23:24:39.886Z,76.20
2019-03-26T23:27:08.324Z,75.10
2019-03-26T23:29:36.758Z,74.70
2019-03-26T23:32:05.194Z,75.10
2019-03-26T23:34:33.631Z,75.10
2019-03-26T23:37:02.394Z,75.40
2019-03-26T23:39:30.829Z,74.60
2019-03-26T23:41:59.257Z,75.60
2019-03-26T23:44:27.693Z,74.90
2019-03-26T23:46:56.125Z,76.40
2019-03-26T23:49:24.576Z,76.00
2019-03-26T23:51:53.006Z,76.30
2019-03-26T23:54:21.457Z,76.60
2019-03-26T23:56:49.964Z,76.60
2019-03-26T23:59:18.409Z,76.30
